sensor_id;sensor_type;location;lat;lon;timestamp;P1;durP1;ratioP1;P2;durP2;ratioP2
23720;SDS011;42950;52.134;5.578;2023-04-03T00:01:13;4.15;;;1.40;;
23720;SDS011;42950;52.134;5.578;2023-04-03T00:03:40;2.25;;;1.67;;
23720;SDS011;42950;52.134;5.578;2023-04-03T00:06:10;3.20;;;1.90;;
23720;SDS011;42950;52.134;5.578;2023-04-03T00:08:37;1.88;;;1.58;;
23720;SDS011;42950;52.134;5.578;2023-04-03T00:11:03;2.45;;;1.50;;
23720;SDS011;42950;52.134;5.578;2023-04-03T00:13:29;2.70;;;1.42;;
23720;SDS011;42950;52.134;5.578;2023-04-03T00:15:56;3.70;;;1.40;;
23720;SDS011;42950;52.134;5.578;2023-04-03T00:18:21;1.30;;;1.20;;
23720;SDS011;42950;52.134;5.578;2023-04-03T00:20:47;2.55;;;1.50;;
23720;SDS011;42950;52.134;5.578;2023-04-03T00:23:13;2.55;;;1.40;;
23720;SDS011;42950;52.134;5.578;2023-04-03T00:25:40;3.35;;;1.58;;
23720;SDS011;42950;52.134;5.578;2023-04-03T00:28:07;4.13;;;1.63;;
23720;SDS011;42950;52.134;5.578;2023-04-03T00:30:33;2.17;;;1.40;;
23720;SDS011;42950;52.134;5.578;2023-04-03T00:32:58;4.13;;;1.60;;
23720;SDS011;42950;52.134;5.578;2023-04-03T00:35:26;3.35;;;1.60;;
23720;SDS011;42950;52.134;5.578;2023-04-03T00:37:53;3.00;;;1.38;;
23720;SDS011;42950;52.134;5.578;2023-04-03T00:40:22;2.55;;;1.50;;
23720;SDS011;42950;52.134;5.578;2023-04-03T00:42:58;2.38;;;1.20;;
23720;SDS011;42950;52.134;5.578;2023-04-03T00:45:26;2.88;;;1.70;;
23720;SDS011;42950;52.134;5.578;2023-04-03T00:48:01;2.47;;;1.65;;
23720;SDS011;42950;52.134;5.578;2023-04-03T00:50:30;3.30;;;1.58;;
23720;SDS011;42950;52.134;5.578;2023-04-03T00:52:59;2.83;;;1.38;;
23720;SDS011;42950;52.134;5.578;2023-04-03T00:55:25;4.35;;;1.42;;
23720;SDS011;42950;52.134;5.578;2023-04-03T00:57:52;4.60;;;1.85;;
23720;SDS011;42950;52.134;5.578;2023-04-03T01:00:20;6.22;;;1.85;;
23720;SDS011;42950;52.134;5.578;2023-04-03T01:02:48;3.85;;;1.77;;
23720;SDS011;42950;52.134;5.578;2023-04-03T01:05:15;3.13;;;1.70;;
23720;SDS011;42950;52.134;5.578;2023-04-03T01:07:42;4.35;;;1.50;;
23720;SDS011;42950;52.134;5.578;2023-04-03T01:10:10;2.90;;;1.40;;
23720;SDS011;42950;52.134;5.578;2023-04-03T01:12:40;2.67;;;1.50;;
23720;SDS011;42950;52.134;5.578;2023-04-03T01:15:15;2.85;;;1.90;;
23720;SDS011;42950;52.134;5.578;2023-04-03T01:17:50;3.30;;;1.60;;
23720;SDS011;42950;52.134;5.578;2023-04-03T01:25:36;2.85;;;1.50;;
23720;SDS011;42950;52.134;5.578;2023-04-03T01:28:05;2.90;;;1.63;;
23720;SDS011;42950;52.134;5.578;2023-04-03T01:30:36;3.50;;;1.65;;
23720;SDS011;42950;52.134;5.578;2023-04-03T01:33:13;2.53;;;1.38;;
23720;SDS011;42950;52.134;5.578;2023-04-03T01:35:39;2.53;;;1.90;;
23720;SDS011;42950;52.134;5.578;2023-04-03T01:38:04;4.22;;;1.58;;
23720;SDS011;42950;52.134;5.578;2023-04-03T01:40:31;4.07;;;1.73;;
23720;SDS011;42950;52.134;5.578;2023-04-03T01:42:56;4.65;;;1.70;;
23720;SDS011;42950;52.134;5.578;2023-04-03T01:45:22;4.90;;;1.92;;
23720;SDS011;42950;52.134;5.578;2023-04-03T01:47:48;3.28;;;1.85;;
23720;SDS011;42950;52.134;5.578;2023-04-03T01:50:13;4.25;;;1.80;;
23720;SDS011;42950;52.134;5.578;2023-04-03T01:52:39;2.75;;;1.65;;
23720;SDS011;42950;52.134;5.578;2023-04-03T01:55:05;2.35;;;1.52;;
23720;SDS011;42950;52.134;5.578;2023-04-03T01:57:31;3.30;;;1.88;;
23720;SDS011;42950;52.134;5.578;2023-04-03T01:59:57;2.17;;;1.50;;
23720;SDS011;42950;52.134;5.578;2023-04-03T02:02:22;3.97;;;1.80;;
23720;SDS011;42950;52.134;5.578;2023-04-03T02:04:48;3.05;;;1.50;;
23720;SDS011;42950;52.134;5.578;2023-04-03T02:07:14;5.47;;;1.70;;
23720;SDS011;42950;52.134;5.578;2023-04-03T02:09:40;5.40;;;1.88;;
23720;SDS011;42950;52.134;5.578;2023-04-03T02:12:06;4.80;;;1.88;;
23720;SDS011;42950;52.134;5.578;2023-04-03T02:14:32;3.38;;;2.00;;
23720;SDS011;42950;52.134;5.578;2023-04-03T02:16:57;2.80;;;2.00;;
23720;SDS011;42950;52.134;5.578;2023-04-03T02:19:26;5.85;;;2.53;;
23720;SDS011;42950;52.134;5.578;2023-04-03T02:21:52;2.22;;;1.70;;
23720;SDS011;42950;52.134;5.578;2023-04-03T02:24:18;5.07;;;2.20;;
23720;SDS011;42950;52.134;5.578;2023-04-03T02:26:43;4.68;;;2.13;;
23720;SDS011;42950;52.134;5.578;2023-04-03T02:29:09;3.83;;;2.05;;
23720;SDS011;42950;52.134;5.578;2023-04-03T02:31:35;3.45;;;2.08;;
23720;SDS011;42950;52.134;5.578;2023-04-03T02:34:01;4.80;;;1.88;;
23720;SDS011;42950;52.134;5.578;2023-04-03T02:36:26;4.78;;;1.77;;
23720;SDS011;42950;52.134;5.578;2023-04-03T02:38:52;5.82;;;2.08;;
23720;SDS011;42950;52.134;5.578;2023-04-03T02:41:18;3.80;;;1.65;;
23720;SDS011;42950;52.134;5.578;2023-04-03T02:43:43;4.72;;;1.88;;
23720;SDS011;42950;52.134;5.578;2023-04-03T02:46:09;4.72;;;2.13;;
23720;SDS011;42950;52.134;5.578;2023-04-03T02:48:35;7.10;;;2.17;;
23720;SDS011;42950;52.134;5.578;2023-04-03T02:51:01;4.47;;;2.03;;
23720;SDS011;42950;52.134;5.578;2023-04-03T02:53:27;4.60;;;2.05;;
23720;SDS011;42950;52.134;5.578;2023-04-03T02:55:53;3.80;;;2.10;;
23720;SDS011;42950;52.134;5.578;2023-04-03T02:58:18;4.05;;;1.80;;
23720;SDS011;42950;52.134;5.578;2023-04-03T03:00:44;3.83;;;2.08;;
23720;SDS011;42950;52.134;5.578;2023-04-03T03:03:16;3.15;;;1.92;;
23720;SDS011;42950;52.134;5.578;2023-04-03T03:05:42;5.07;;;2.22;;
23720;SDS011;42950;52.134;5.578;2023-04-03T03:08:08;4.47;;;2.20;;
23720;SDS011;42950;52.134;5.578;2023-04-03T03:10:34;3.00;;;1.85;;
23720;SDS011;42950;52.134;5.578;2023-04-03T03:12:59;5.55;;;2.10;;
23720;SDS011;42950;52.134;5.578;2023-04-03T03:15:26;4.38;;;2.00;;
23720;SDS011;42950;52.134;5.578;2023-04-03T03:17:51;8.60;;;2.50;;
23720;SDS011;42950;52.134;5.578;2023-04-03T03:20:17;4.82;;;2.15;;
23720;SDS011;42950;52.134;5.578;2023-04-03T03:22:44;6.15;;;2.28;;
23720;SDS011;42950;52.134;5.578;2023-04-03T03:25:10;6.18;;;2.35;;
23720;SDS011;42950;52.134;5.578;2023-04-03T03:27:37;6.25;;;2.42;;
23720;SDS011;42950;52.134;5.578;2023-04-03T03:30:04;5.85;;;2.55;;
23720;SDS011;42950;52.134;5.578;2023-04-03T03:32:30;3.97;;;2.20;;
23720;SDS011;42950;52.134;5.578;2023-04-03T03:34:56;5.10;;;2.40;;
23720;SDS011;42950;52.134;5.578;2023-04-03T03:37:22;2.67;;;1.98;;
23720;SDS011;42950;52.134;5.578;2023-04-03T03:39:47;4.93;;;2.20;;
23720;SDS011;42950;52.134;5.578;2023-04-03T03:42:14;3.78;;;1.92;;
23720;SDS011;42950;52.134;5.578;2023-04-03T03:44:39;3.83;;;2.17;;
23720;SDS011;42950;52.134;5.578;2023-04-03T03:47:05;4.93;;;2.10;;
23720;SDS011;42950;52.134;5.578;2023-04-03T03:49:31;4.35;;;2.10;;
23720;SDS011;42950;52.134;5.578;2023-04-03T03:51:56;5.53;;;2.13;;
23720;SDS011;42950;52.134;5.578;2023-04-03T03:54:22;5.15;;;2.53;;
23720;SDS011;42950;52.134;5.578;2023-04-03T03:56:48;5.97;;;2.20;;
23720;SDS011;42950;52.134;5.578;2023-04-03T03:59:13;8.57;;;2.42;;
23720;SDS011;42950;52.134;5.578;2023-04-03T04:01:39;4.28;;;1.90;;
23720;SDS011;42950;52.134;5.578;2023-04-03T04:04:05;5.80;;;2.35;;
23720;SDS011;42950;52.134;5.578;2023-04-03T04:06:30;7.22;;;2.38;;
23720;SDS011;42950;52.134;5.578;2023-04-03T04:08:56;5.65;;;2.30;;
23720;SDS011;42950;52.134;5.578;2023-04-03T04:11:22;6.20;;;2.65;;
23720;SDS011;42950;52.134;5.578;2023-04-03T04:13:48;6.43;;;2.70;;
23720;SDS011;42950;52.134;5.578;2023-04-03T04:16:13;6.93;;;2.22;;
23720;SDS011;42950;52.134;5.578;2023-04-03T04:18:39;5.07;;;2.15;;
23720;SDS011;42950;52.134;5.578;2023-04-03T04:21:05;2.92;;;2.10;;
23720;SDS011;42950;52.134;5.578;2023-04-03T04:23:30;3.97;;;2.20;;
23720;SDS011;42950;52.134;5.578;2023-04-03T04:25:57;3.97;;;2.25;;
23720;SDS011;42950;52.134;5.578;2023-04-03T04:28:23;4.50;;;2.20;;
23720;SDS011;42950;52.134;5.578;2023-04-03T04:30:48;5.05;;;2.08;;
23720;SDS011;42950;52.134;5.578;2023-04-03T04:33:15;7.47;;;2.47;;
23720;SDS011;42950;52.134;5.578;2023-04-03T04:35:41;10.93;;;2.53;;
23720;SDS011;42950;52.134;5.578;2023-04-03T04:38:08;7.35;;;2.60;;
23720;SDS011;42950;52.134;5.578;2023-04-03T04:40:34;6.35;;;2.40;;
23720;SDS011;42950;52.134;5.578;2023-04-03T04:43:00;6.00;;;2.42;;
23720;SDS011;42950;52.134;5.578;2023-04-03T04:45:27;4.40;;;2.40;;
23720;SDS011;42950;52.134;5.578;2023-04-03T04:47:54;3.78;;;2.15;;
23720;SDS011;42950;52.134;5.578;2023-04-03T04:50:21;5.47;;;2.72;;
23720;SDS011;42950;52.134;5.578;2023-04-03T04:52:47;8.43;;;2.67;;
23720;SDS011;42950;52.134;5.578;2023-04-03T04:55:13;11.77;;;3.13;;
23720;SDS011;42950;52.134;5.578;2023-04-03T04:57:39;12.68;;;3.20;;
23720;SDS011;42950;52.134;5.578;2023-04-03T05:00:05;8.48;;;2.70;;
23720;SDS011;42950;52.134;5.578;2023-04-03T05:02:31;5.15;;;2.38;;
23720;SDS011;42950;52.134;5.578;2023-04-03T05:04:57;5.90;;;2.40;;
23720;SDS011;42950;52.134;5.578;2023-04-03T05:07:22;5.57;;;2.58;;
23720;SDS011;42950;52.134;5.578;2023-04-03T05:09:49;8.63;;;2.78;;
23720;SDS011;42950;52.134;5.578;2023-04-03T05:12:16;7.93;;;2.65;;
23720;SDS011;42950;52.134;5.578;2023-04-03T05:14:42;8.43;;;2.72;;
23720;SDS011;42950;52.134;5.578;2023-04-03T05:17:07;5.95;;;2.60;;
23720;SDS011;42950;52.134;5.578;2023-04-03T05:19:34;10.20;;;3.40;;
23720;SDS011;42950;52.134;5.578;2023-04-03T05:22:00;4.95;;;2.50;;
23720;SDS011;42950;52.134;5.578;2023-04-03T05:24:26;5.22;;;2.67;;
23720;SDS011;42950;52.134;5.578;2023-04-03T05:26:53;8.30;;;2.80;;
23720;SDS011;42950;52.134;5.578;2023-04-03T05:29:19;4.32;;;2.10;;
23720;SDS011;42950;52.134;5.578;2023-04-03T05:31:44;9.23;;;2.50;;
23720;SDS011;42950;52.134;5.578;2023-04-03T05:34:10;5.63;;;2.75;;
23720;SDS011;42950;52.134;5.578;2023-04-03T05:36:36;4.47;;;2.53;;
23720;SDS011;42950;52.134;5.578;2023-04-03T05:39:01;6.38;;;2.55;;
23720;SDS011;42950;52.134;5.578;2023-04-03T05:41:27;8.73;;;2.80;;
23720;SDS011;42950;52.134;5.578;2023-04-03T05:43:54;7.47;;;3.10;;
23720;SDS011;42950;52.134;5.578;2023-04-03T05:46:20;7.15;;;2.50;;
23720;SDS011;42950;52.134;5.578;2023-04-03T05:48:46;5.10;;;2.60;;
23720;SDS011;42950;52.134;5.578;2023-04-03T05:51:19;5.63;;;2.85;;
23720;SDS011;42950;52.134;5.578;2023-04-03T05:53:48;8.55;;;2.42;;
23720;SDS011;42950;52.134;5.578;2023-04-03T05:56:17;9.38;;;2.88;;
23720;SDS011;42950;52.134;5.578;2023-04-03T05:58:42;6.15;;;3.10;;
23720;SDS011;42950;52.134;5.578;2023-04-03T06:01:08;6.45;;;3.30;;
23720;SDS011;42950;52.134;5.578;2023-04-03T06:03:34;7.47;;;3.00;;
23720;SDS011;42950;52.134;5.578;2023-04-03T06:06:01;8.10;;;3.05;;
23720;SDS011;42950;52.134;5.578;2023-04-03T06:08:28;9.15;;;3.22;;
23720;SDS011;42950;52.134;5.578;2023-04-03T06:10:54;6.30;;;2.50;;
23720;SDS011;42950;52.134;5.578;2023-04-03T06:13:19;3.97;;;2.30;;
23720;SDS011;42950;52.134;5.578;2023-04-03T06:15:45;5.68;;;2.90;;
23720;SDS011;42950;52.134;5.578;2023-04-03T06:18:11;7.18;;;2.72;;
23720;SDS011;42950;52.134;5.578;2023-04-03T06:20:37;5.88;;;2.40;;
23720;SDS011;42950;52.134;5.578;2023-04-03T06:23:02;6.22;;;2.53;;
23720;SDS011;42950;52.134;5.578;2023-04-03T06:25:28;7.30;;;2.70;;
23720;SDS011;42950;52.134;5.578;2023-04-03T06:27:54;5.07;;;2.63;;
23720;SDS011;42950;52.134;5.578;2023-04-03T06:30:20;7.20;;;2.53;;
23720;SDS011;42950;52.134;5.578;2023-04-03T06:32:46;7.55;;;2.60;;
23720;SDS011;42950;52.134;5.578;2023-04-03T06:35:11;7.88;;;3.05;;
23720;SDS011;42950;52.134;5.578;2023-04-03T06:37:37;7.82;;;3.20;;
23720;SDS011;42950;52.134;5.578;2023-04-03T06:40:03;8.98;;;3.10;;
23720;SDS011;42950;52.134;5.578;2023-04-03T06:42:29;6.38;;;2.58;;
23720;SDS011;42950;52.134;5.578;2023-04-03T06:44:55;9.20;;;3.10;;
23720;SDS011;42950;52.134;5.578;2023-04-03T06:47:20;5.70;;;2.40;;
23720;SDS011;42950;52.134;5.578;2023-04-03T06:49:46;8.18;;;2.55;;
23720;SDS011;42950;52.134;5.578;2023-04-03T06:52:12;4.70;;;2.13;;
23720;SDS011;42950;52.134;5.578;2023-04-03T06:54:38;7.80;;;2.72;;
23720;SDS011;42950;52.134;5.578;2023-04-03T06:57:05;8.10;;;3.10;;
23720;SDS011;42950;52.134;5.578;2023-04-03T06:59:31;5.88;;;2.47;;
23720;SDS011;42950;52.134;5.578;2023-04-03T07:01:57;7.07;;;2.80;;
23720;SDS011;42950;52.134;5.578;2023-04-03T07:04:24;6.97;;;2.75;;
23720;SDS011;42950;52.134;5.578;2023-04-03T07:06:50;6.47;;;2.45;;
23720;SDS011;42950;52.134;5.578;2023-04-03T07:09:15;6.65;;;3.00;;
23720;SDS011;42950;52.134;5.578;2023-04-03T07:11:41;7.30;;;2.55;;
23720;SDS011;42950;52.134;5.578;2023-04-03T07:14:07;4.03;;;2.53;;
23720;SDS011;42950;52.134;5.578;2023-04-03T07:16:33;5.25;;;2.72;;
23720;SDS011;42950;52.134;5.578;2023-04-03T07:18:59;5.40;;;2.25;;
23720;SDS011;42950;52.134;5.578;2023-04-03T07:21:26;6.68;;;2.67;;
23720;SDS011;42950;52.134;5.578;2023-04-03T07:23:52;8.88;;;2.88;;
23720;SDS011;42950;52.134;5.578;2023-04-03T07:26:18;4.78;;;2.10;;
23720;SDS011;42950;52.134;5.578;2023-04-03T07:28:45;6.80;;;2.50;;
23720;SDS011;42950;52.134;5.578;2023-04-03T07:31:13;6.10;;;2.10;;
23720;SDS011;42950;52.134;5.578;2023-04-03T07:33:40;7.63;;;2.17;;
23720;SDS011;42950;52.134;5.578;2023-04-03T07:36:07;6.60;;;2.35;;
23720;SDS011;42950;52.134;5.578;2023-04-03T07:38:34;5.47;;;1.90;;
23720;SDS011;42950;52.134;5.578;2023-04-03T07:41:01;7.50;;;2.30;;
23720;SDS011;42950;52.134;5.578;2023-04-03T07:43:27;6.35;;;2.08;;
23720;SDS011;42950;52.134;5.578;2023-04-03T07:45:53;5.10;;;2.20;;
23720;SDS011;42950;52.134;5.578;2023-04-03T07:48:23;5.18;;;2.33;;
23720;SDS011;42950;52.134;5.578;2023-04-03T07:50:50;7.80;;;2.28;;
23720;SDS011;42950;52.134;5.578;2023-04-03T07:53:17;5.20;;;1.95;;
23720;SDS011;42950;52.134;5.578;2023-04-03T07:55:46;4.18;;;1.73;;
23720;SDS011;42950;52.134;5.578;2023-04-03T07:58:13;4.72;;;2.05;;
23720;SDS011;42950;52.134;5.578;2023-04-03T08:00:41;4.40;;;1.60;;
23720;SDS011;42950;52.134;5.578;2023-04-03T08:03:09;3.28;;;1.60;;
23720;SDS011;42950;52.134;5.578;2023-04-03T08:05:36;4.40;;;1.42;;
23720;SDS011;42950;52.134;5.578;2023-04-03T08:08:03;4.78;;;2.08;;
23720;SDS011;42950;52.134;5.578;2023-04-03T08:10:30;4.38;;;1.67;;
23720;SDS011;42950;52.134;5.578;2023-04-03T08:12:55;5.97;;;1.58;;
23720;SDS011;42950;52.134;5.578;2023-04-03T08:15:21;2.78;;;1.50;;
23720;SDS011;42950;52.134;5.578;2023-04-03T08:17:47;5.63;;;1.75;;
23720;SDS011;42950;52.134;5.578;2023-04-03T08:20:12;3.17;;;1.10;;
23720;SDS011;42950;52.134;5.578;2023-04-03T08:22:38;6.35;;;1.33;;
23720;SDS011;42950;52.134;5.578;2023-04-03T08:25:04;4.82;;;1.25;;
23720;SDS011;42950;52.134;5.578;2023-04-03T08:27:30;2.78;;;1.08;;
23720;SDS011;42950;52.134;5.578;2023-04-03T08:29:56;6.18;;;1.30;;
23720;SDS011;42950;52.134;5.578;2023-04-03T08:32:22;2.55;;;1.17;;
23720;SDS011;42950;52.134;5.578;2023-04-03T08:34:49;5.55;;;1.40;;
23720;SDS011;42950;52.134;5.578;2023-04-03T08:37:14;3.63;;;1.05;;
23720;SDS011;42950;52.134;5.578;2023-04-03T08:39:41;3.00;;;1.00;;
23720;SDS011;42950;52.134;5.578;2023-04-03T08:42:15;3.65;;;1.65;;
23720;SDS011;42950;52.134;5.578;2023-04-03T08:45:04;2.50;;;1.10;;
23720;SDS011;42950;52.134;5.578;2023-04-03T08:50:21;3.65;;;1.10;;
23720;SDS011;42950;52.134;5.578;2023-04-03T08:53:19;2.35;;;1.10;;
23720;SDS011;42950;52.134;5.578;2023-04-03T08:55:49;2.13;;;0.95;;
23720;SDS011;42950;52.134;5.578;2023-04-03T08:58:16;2.53;;;1.00;;
23720;SDS011;42950;52.134;5.578;2023-04-03T09:03:22;2.88;;;1.02;;
23720;SDS011;42950;52.134;5.578;2023-04-03T09:16:21;2.13;;;0.93;;
23720;SDS011;42950;52.134;5.578;2023-04-03T09:18:57;2.92;;;0.70;;
23720;SDS011;42950;52.134;5.578;2023-04-03T09:21:37;1.73;;;0.57;;
23720;SDS011;42950;52.134;5.578;2023-04-03T09:24:07;1.33;;;0.60;;
23720;SDS011;42950;52.134;5.578;2023-04-03T09:26:45;0.80;;;0.50;;
23720;SDS011;42950;52.134;5.578;2023-04-03T09:29:19;0.63;;;0.40;;
23720;SDS011;42950;52.134;5.578;2023-04-03T09:31:47;0.65;;;0.40;;
23720;SDS011;42950;52.134;5.578;2023-04-03T09:36:47;1.08;;;0.50;;
23720;SDS011;42950;52.134;5.578;2023-04-03T09:39:20;3.28;;;0.60;;
23720;SDS011;42950;52.134;5.578;2023-04-03T09:41:56;2.17;;;0.60;;
23720;SDS011;42950;52.134;5.578;2023-04-03T09:44:33;2.22;;;0.63;;
23720;SDS011;42950;52.134;5.578;2023-04-03T09:47:17;1.83;;;0.60;;
23720;SDS011;42950;52.134;5.578;2023-04-03T09:49:46;1.92;;;0.45;;
23720;SDS011;42950;52.134;5.578;2023-04-03T09:52:46;3.58;;;0.68;;
23720;SDS011;42950;52.134;5.578;2023-04-03T09:55:07;1.60;;;0.63;;
23720;SDS011;42950;52.134;5.578;2023-04-03T09:57:39;2.17;;;0.70;;
23720;SDS011;42950;52.134;5.578;2023-04-03T10:00:06;1.40;;;0.50;;
23720;SDS011;42950;52.134;5.578;2023-04-03T10:02:44;2.17;;;0.57;;
23720;SDS011;42950;52.134;5.578;2023-04-03T10:10:41;1.15;;;0.70;;
23720;SDS011;42950;52.134;5.578;2023-04-03T10:13:29;1.23;;;0.45;;
23720;SDS011;42950;52.134;5.578;2023-04-03T10:21:20;1.17;;;0.40;;
23720;SDS011;42950;52.134;5.578;2023-04-03T10:24:19;1.75;;;0.47;;
23720;SDS011;42950;52.134;5.578;2023-04-03T10:29:29;1.05;;;0.60;;
23720;SDS011;42950;52.134;5.578;2023-04-03T10:32:02;1.83;;;0.40;;
23720;SDS011;42950;52.134;5.578;2023-04-03T10:34:52;1.48;;;0.52;;
23720;SDS011;42950;52.134;5.578;2023-04-03T10:37:50;1.73;;;0.55;;
23720;SDS011;42950;52.134;5.578;2023-04-03T10:41:04;1.50;;;0.47;;
23720;SDS011;42950;52.134;5.578;2023-04-03T10:46:35;1.00;;;0.50;;
23720;SDS011;42950;52.134;5.578;2023-04-03T10:52:37;2.22;;;0.60;;
23720;SDS011;42950;52.134;5.578;2023-04-03T10:57:47;1.00;;;0.60;;
23720;SDS011;42950;52.134;5.578;2023-04-03T11:00:21;2.40;;;0.70;;
23720;SDS011;42950;52.134;5.578;2023-04-03T11:02:56;1.13;;;0.63;;
23720;SDS011;42950;52.134;5.578;2023-04-03T11:05:34;1.63;;;0.70;;
23720;SDS011;42950;52.134;5.578;2023-04-03T11:08:08;0.57;;;0.50;;
23720;SDS011;42950;52.134;5.578;2023-04-03T11:10:48;2.33;;;0.70;;
23720;SDS011;42950;52.134;5.578;2023-04-03T11:13:31;2.20;;;0.60;;
23720;SDS011;42950;52.134;5.578;2023-04-03T11:16:00;4.82;;;0.80;;
23720;SDS011;42950;52.134;5.578;2023-04-03T11:21:16;1.80;;;0.70;;
23720;SDS011;42950;52.134;5.578;2023-04-03T11:23:49;3.42;;;0.63;;
23720;SDS011;42950;52.134;5.578;2023-04-03T11:26:23;1.48;;;0.73;;
23720;SDS011;42950;52.134;5.578;2023-04-03T11:28:53;0.85;;;0.65;;
23720;SDS011;42950;52.134;5.578;2023-04-03T11:36:59;1.30;;;0.63;;
23720;SDS011;42950;52.134;5.578;2023-04-03T11:39:30;1.27;;;0.60;;
23720;SDS011;42950;52.134;5.578;2023-04-03T11:42:14;11.40;;;1.88;;
23720;SDS011;42950;52.134;5.578;2023-04-03T11:53:01;3.33;;;0.77;;
23720;SDS011;42950;52.134;5.578;2023-04-03T11:58:34;6.15;;;0.73;;
23720;SDS011;42950;52.134;5.578;2023-04-03T12:04:16;0.95;;;0.65;;
23720;SDS011;42950;52.134;5.578;2023-04-03T12:16:02;2.22;;;0.77;;
23720;SDS011;42950;52.134;5.578;2023-04-03T12:18:41;2.85;;;0.98;;
23720;SDS011;42950;52.134;5.578;2023-04-03T12:21:07;2.72;;;0.80;;
23720;SDS011;42950;52.134;5.578;2023-04-03T12:23:35;1.65;;;0.70;;
23720;SDS011;42950;52.134;5.578;2023-04-03T12:26:20;1.42;;;0.70;;
23720;SDS011;42950;52.134;5.578;2023-04-03T12:28:47;2.13;;;0.90;;
23720;SDS011;42950;52.134;5.578;2023-04-03T12:31:14;2.40;;;0.80;;
23720;SDS011;42950;52.134;5.578;2023-04-03T12:36:52;2.63;;;0.90;;
23720;SDS011;42950;52.134;5.578;2023-04-03T12:39:33;2.90;;;0.50;;
23720;SDS011;42950;52.134;5.578;2023-04-03T12:47:34;1.65;;;0.70;;
23720;SDS011;42950;52.134;5.578;2023-04-03T12:50:03;3.20;;;0.90;;
23720;SDS011;42950;52.134;5.578;2023-04-03T12:52:41;3.50;;;0.73;;
23720;SDS011;42950;52.134;5.578;2023-04-03T12:55:17;2.50;;;0.82;;
23720;SDS011;42950;52.134;5.578;2023-04-03T12:57:45;2.55;;;1.00;;
23720;SDS011;42950;52.134;5.578;2023-04-03T13:02:55;2.63;;;0.90;;
23720;SDS011;42950;52.134;5.578;2023-04-03T13:05:22;1.90;;;0.63;;
23720;SDS011;42950;52.134;5.578;2023-04-03T13:07:49;1.83;;;0.68;;
23720;SDS011;42950;52.134;5.578;2023-04-03T13:10:29;3.28;;;1.27;;
23720;SDS011;42950;52.134;5.578;2023-04-03T13:12:58;1.40;;;0.80;;
23720;SDS011;42950;52.134;5.578;2023-04-03T13:15:45;3.10;;;0.77;;
23720;SDS011;42950;52.134;5.578;2023-04-03T13:21:04;2.40;;;0.85;;
23720;SDS011;42950;52.134;5.578;2023-04-03T13:23:34;1.00;;;0.60;;
23720;SDS011;42950;52.134;5.578;2023-04-03T13:26:03;3.95;;;0.90;;
23720;SDS011;42950;52.134;5.578;2023-04-03T13:28:30;1.88;;;0.98;;
23720;SDS011;42950;52.134;5.578;2023-04-03T13:33:32;3.03;;;0.90;;
23720;SDS011;42950;52.134;5.578;2023-04-03T13:36:04;2.10;;;0.75;;
23720;SDS011;42950;52.134;5.578;2023-04-03T13:38:42;1.85;;;0.77;;
23720;SDS011;42950;52.134;5.578;2023-04-03T13:41:29;2.60;;;0.70;;
23720;SDS011;42950;52.134;5.578;2023-04-03T13:43:57;2.05;;;0.90;;
23720;SDS011;42950;52.134;5.578;2023-04-03T13:46:45;2.60;;;0.90;;
23720;SDS011;42950;52.134;5.578;2023-04-03T13:49:21;1.83;;;0.90;;
23720;SDS011;42950;52.134;5.578;2023-04-03T13:51:47;2.28;;;0.88;;
23720;SDS011;42950;52.134;5.578;2023-04-03T13:54:47;1.35;;;0.73;;
23720;SDS011;42950;52.134;5.578;2023-04-03T13:57:15;1.85;;;0.88;;
23720;SDS011;42950;52.134;5.578;2023-04-03T13:59:41;1.80;;;0.80;;
23720;SDS011;42950;52.134;5.578;2023-04-03T14:07:01;1.85;;;1.13;;
23720;SDS011;42950;52.134;5.578;2023-04-03T14:09:27;1.70;;;1.00;;
23720;SDS011;42950;52.134;5.578;2023-04-03T14:11:54;3.97;;;1.27;;
23720;SDS011;42950;52.134;5.578;2023-04-03T14:14:26;2.28;;;1.08;;
23720;SDS011;42950;52.134;5.578;2023-04-03T14:16:55;3.60;;;1.00;;
23720;SDS011;42950;52.134;5.578;2023-04-03T14:19:30;3.92;;;1.30;;
23720;SDS011;42950;52.134;5.578;2023-04-03T14:21:58;1.95;;;0.85;;
23720;SDS011;42950;52.134;5.578;2023-04-03T14:24:25;1.63;;;0.90;;
23720;SDS011;42950;52.134;5.578;2023-04-03T14:26:52;3.38;;;1.40;;
23720;SDS011;42950;52.134;5.578;2023-04-03T14:29:19;3.17;;;1.20;;
23720;SDS011;42950;52.134;5.578;2023-04-03T14:31:47;4.80;;;1.30;;
23720;SDS011;42950;52.134;5.578;2023-04-03T14:34:14;3.15;;;1.25;;
23720;SDS011;42950;52.134;5.578;2023-04-03T14:36:41;3.65;;;1.42;;
23720;SDS011;42950;52.134;5.578;2023-04-03T14:39:10;2.92;;;1.38;;
23720;SDS011;42950;52.134;5.578;2023-04-03T14:41:41;1.73;;;1.13;;
23720;SDS011;42950;52.134;5.578;2023-04-03T14:44:07;2.22;;;1.10;;
23720;SDS011;42950;52.134;5.578;2023-04-03T14:46:34;5.18;;;1.65;;
23720;SDS011;42950;52.134;5.578;2023-04-03T14:49:02;2.55;;;1.30;;
23720;SDS011;42950;52.134;5.578;2023-04-03T14:51:32;3.40;;;1.17;;
23720;SDS011;42950;52.134;5.578;2023-04-03T14:53:58;4.40;;;1.23;;
23720;SDS011;42950;52.134;5.578;2023-04-03T14:56:25;1.70;;;1.00;;
23720;SDS011;42950;52.134;5.578;2023-04-03T14:58:55;2.40;;;1.10;;
23720;SDS011;42950;52.134;5.578;2023-04-03T15:01:22;3.40;;;1.23;;
23720;SDS011;42950;52.134;5.578;2023-04-03T15:03:48;2.25;;;1.27;;
23720;SDS011;42950;52.134;5.578;2023-04-03T15:06:14;2.03;;;1.05;;
23720;SDS011;42950;52.134;5.578;2023-04-03T15:08:40;3.33;;;1.42;;
23720;SDS011;42950;52.134;5.578;2023-04-03T15:11:08;3.05;;;1.15;;
23720;SDS011;42950;52.134;5.578;2023-04-03T15:13:35;4.20;;;1.23;;
23720;SDS011;42950;52.134;5.578;2023-04-03T15:16:01;2.13;;;1.17;;
23720;SDS011;42950;52.134;5.578;2023-04-03T15:18:27;3.33;;;1.20;;
23720;SDS011;42950;52.134;5.578;2023-04-03T15:20:57;3.92;;;1.27;;
23720;SDS011;42950;52.134;5.578;2023-04-03T15:23:22;2.60;;;1.40;;
23720;SDS011;42950;52.134;5.578;2023-04-03T15:25:51;4.00;;;1.20;;
23720;SDS011;42950;52.134;5.578;2023-04-03T15:28:27;3.50;;;1.30;;
23720;SDS011;42950;52.134;5.578;2023-04-03T15:30:55;3.67;;;1.40;;
23720;SDS011;42950;52.134;5.578;2023-04-03T15:33:22;2.17;;;1.60;;
23720;SDS011;42950;52.134;5.578;2023-04-03T15:35:48;2.95;;;1.90;;
23720;SDS011;42950;52.134;5.578;2023-04-03T15:38:14;3.10;;;1.60;;
23720;SDS011;42950;52.134;5.578;2023-04-03T15:40:40;2.45;;;1.50;;
23720;SDS011;42950;52.134;5.578;2023-04-03T15:43:06;2.40;;;1.40;;
23720;SDS011;42950;52.134;5.578;2023-04-03T15:45:32;2.33;;;1.50;;
23720;SDS011;42950;52.134;5.578;2023-04-03T15:47:59;4.55;;;1.50;;
23720;SDS011;42950;52.134;5.578;2023-04-03T15:50:26;3.85;;;1.40;;
23720;SDS011;42950;52.134;5.578;2023-04-03T15:52:51;2.33;;;1.42;;
23720;SDS011;42950;52.134;5.578;2023-04-03T15:55:26;3.63;;;1.30;;
23720;SDS011;42950;52.134;5.578;2023-04-03T15:57:53;2.63;;;1.45;;
23720;SDS011;42950;52.134;5.578;2023-04-03T16:00:19;2.33;;;1.38;;
23720;SDS011;42950;52.134;5.578;2023-04-03T16:02:47;4.03;;;1.50;;
23720;SDS011;42950;52.134;5.578;2023-04-03T16:05:15;5.70;;;1.60;;
23720;SDS011;42950;52.134;5.578;2023-04-03T16:07:43;4.10;;;1.58;;
23720;SDS011;42950;52.134;5.578;2023-04-03T16:10:10;3.20;;;1.42;;
23720;SDS011;42950;52.134;5.578;2023-04-03T16:12:37;3.95;;;1.60;;
23720;SDS011;42950;52.134;5.578;2023-04-03T16:15:02;5.82;;;1.27;;
23720;SDS011;42950;52.134;5.578;2023-04-03T16:17:28;3.28;;;1.50;;
23720;SDS011;42950;52.134;5.578;2023-04-03T16:19:55;4.55;;;1.60;;
23720;SDS011;42950;52.134;5.578;2023-04-03T16:22:21;2.17;;;1.35;;
23720;SDS011;42950;52.134;5.578;2023-04-03T16:24:48;3.28;;;1.20;;
23720;SDS011;42950;52.134;5.578;2023-04-03T16:27:14;2.88;;;1.17;;
23720;SDS011;42950;52.134;5.578;2023-04-03T16:29:40;3.20;;;1.75;;
23720;SDS011;42950;52.134;5.578;2023-04-03T16:32:06;4.15;;;1.60;;
23720;SDS011;42950;52.134;5.578;2023-04-03T16:34:31;5.10;;;1.30;;
23720;SDS011;42950;52.134;5.578;2023-04-03T16:36:57;3.72;;;1.05;;